INFORMACIÓN METAR y TAF
METAR FOR EPWR
ADDS - METARS form results

(0858 UTC 25 August 2019)
Data provider http://aviationweather.gov/metar/data/
 
METAR text: EPWR 250830Z 11007KT 070V130 CAVOK 23/14 Q1023
Conditions at: EPWR (WROCLAW/STRACHOW, PL) observed 0830 UTC 25 August 2019
Temperature: 23.0°C (73°F)
Dewpoint: 14.0°C (57°F) [RH = 57%]
Pressure (altimeter): 30.21 inches Hg (1023.0 mb)
Winds: from the ESE (110 degrees) at 8 MPH (7 knots; 3.6 m/s)
Visibility: 6 or more miles (10+ km)
Ceiling: ceiling and visibility are OK
Clouds: unknown
Weather: no significant weather observed at this time

METAR text: EPWR 250800Z 12007KT 090V150 CAVOK 22/14 Q1023
Conditions at: EPWR (WROCLAW/STRACHOW, PL) observed 0800 UTC 25 August 2019
Temperature: 22.0°C (72°F)
Dewpoint: 14.0°C (57°F) [RH = 60%]
Pressure (altimeter): 30.21 inches Hg (1023.0 mb)
Winds: from the ESE (120 degrees) at 8 MPH (7 knots; 3.6 m/s)
Visibility: 6 or more miles (10+ km)
Ceiling: ceiling and visibility are OK
Clouds: unknown
Weather: no significant weather observed at this time

Forecast for: EPWR (WROCLAW/STRACHOW, PL)
Text: TAF EPWR 250830Z 2509/2609 11007KT CAVOK
Forecast period: 0900 UTC 25 August 2019 to 0900 UTC 26 August 2019
Forecast type: FROM: standard forecast or significant change
Winds: from the ESE (110 degrees) at 8 MPH (7 knots; 3.6 m/s)
Visibility: 6 or more miles 10+ km)
Ceiling: unknown
Clouds: missing
Weather: NSW  (no significant weather)

 MAPA DE AEROPUERTO

 INFORMACIÓN DE PISTA
Pista 12 Longitud 8202 ft Ancho 197 ft
Elevación 404 ft Umbral desplazado 0 ft Rumbo de pista 116
Pista 30 Longitud 8202 ft Ancho 197 ft
Elevación 400 ft Umbral desplazado 0 ft Rumbo de pista 296

 FRECUANCIAS DEL AEROPUERTO
Tipo TWR Nombre WROCLAW TW Frecuencia 127.225 MHZ

 RADIO AYUDAS DEL AEROPUERTO
Tipo NDB Nombre Wroclaw Frecuencia 255 KHZ
Tipo NDB Nombre Wroclaw Frecuencia 525 KHZ
Tipo VOR-DME Nombre Trzebnica Frecuencia 113600 KHZ



Powered by Virtual Airlines Manager [v2.6.2]